sensor_id;sensor_type;location;lat;lon;timestamp;temperature;humidity
11089;DHT22;5598;48.648;8.908;2024-02-23T00:01:40;4.80;99.90
11089;DHT22;5598;48.648;8.908;2024-02-23T00:04:07;4.80;99.90
11089;DHT22;5598;48.648;8.908;2024-02-23T00:06:35;4.80;99.90
11089;DHT22;5598;48.648;8.908;2024-02-23T00:09:02;4.80;99.90
11089;DHT22;5598;48.648;8.908;2024-02-23T00:11:30;4.90;99.90
11089;DHT22;5598;48.648;8.908;2024-02-23T00:13:58;4.90;99.90
11089;DHT22;5598;48.648;8.908;2024-02-23T00:16:25;4.90;99.90
11089;DHT22;5598;48.648;8.908;2024-02-23T00:18:52;4.90;99.90
11089;DHT22;5598;48.648;8.908;2024-02-23T00:21:19;4.90;99.90
11089;DHT22;5598;48.648;8.908;2024-02-23T00:23:46;4.90;99.90
11089;DHT22;5598;48.648;8.908;2024-02-23T00:26:13;4.90;99.90
11089;DHT22;5598;48.648;8.908;2024-02-23T00:28:41;5.00;99.90
11089;DHT22;5598;48.648;8.908;2024-02-23T00:31:08;5.00;99.90
11089;DHT22;5598;48.648;8.908;2024-02-23T00:33:34;4.90;99.90
11089;DHT22;5598;48.648;8.908;2024-02-23T00:36:03;5.00;99.90
11089;DHT22;5598;48.648;8.908;2024-02-23T00:38:30;5.00;99.90
11089;DHT22;5598;48.648;8.908;2024-02-23T00:40:57;5.00;99.90
11089;DHT22;5598;48.648;8.908;2024-02-23T00:43:24;4.90;99.90
11089;DHT22;5598;48.648;8.908;2024-02-23T00:45:54;5.00;99.90
11089;DHT22;5598;48.648;8.908;2024-02-23T00:48:21;4.90;99.90
11089;DHT22;5598;48.648;8.908;2024-02-23T00:50:47;4.90;99.90
11089;DHT22;5598;48.648;8.908;2024-02-23T00:53:14;5.00;99.90
11089;DHT22;5598;48.648;8.908;2024-02-23T00:55:43;5.00;99.90
11089;DHT22;5598;48.648;8.908;2024-02-23T00:58:10;5.00;99.90
11089;DHT22;5598;48.648;8.908;2024-02-23T01:00:36;4.90;99.90
11089;DHT22;5598;48.648;8.908;2024-02-23T01:03:05;5.00;99.90
11089;DHT22;5598;48.648;8.908;2024-02-23T01:05:32;5.00;99.90
11089;DHT22;5598;48.648;8.908;2024-02-23T01:07:58;5.00;99.90
11089;DHT22;5598;48.648;8.908;2024-02-23T01:10:25;5.00;99.90
11089;DHT22;5598;48.648;8.908;2024-02-23T01:12:52;5.00;99.90
11089;DHT22;5598;48.648;8.908;2024-02-23T01:15:19;5.00;99.90
11089;DHT22;5598;48.648;8.908;2024-02-23T01:17:46;5.00;99.90
11089;DHT22;5598;48.648;8.908;2024-02-23T01:20:14;5.00;99.90
11089;DHT22;5598;48.648;8.908;2024-02-23T01:22:42;5.00;99.90
11089;DHT22;5598;48.648;8.908;2024-02-23T01:25:09;4.90;99.90
11089;DHT22;5598;48.648;8.908;2024-02-23T01:27:36;5.00;99.90
11089;DHT22;5598;48.648;8.908;2024-02-23T01:30:04;5.00;99.90
11089;DHT22;5598;48.648;8.908;2024-02-23T01:32:31;4.90;99.90
11089;DHT22;5598;48.648;8.908;2024-02-23T01:34:58;4.90;99.90
11089;DHT22;5598;48.648;8.908;2024-02-23T01:37:26;4.90;99.90
11089;DHT22;5598;48.648;8.908;2024-02-23T01:39:53;4.90;99.90
11089;DHT22;5598;48.648;8.908;2024-02-23T01:42:20;4.90;99.90
11089;DHT22;5598;48.648;8.908;2024-02-23T01:44:47;4.90;99.90
11089;DHT22;5598;48.648;8.908;2024-02-23T01:47:15;4.90;99.90
11089;DHT22;5598;48.648;8.908;2024-02-23T01:49:42;4.90;99.90
11089;DHT22;5598;48.648;8.908;2024-02-23T01:52:10;4.90;99.90
11089;DHT22;5598;48.648;8.908;2024-02-23T01:54:38;4.90;99.90
11089;DHT22;5598;48.648;8.908;2024-02-23T01:57:05;4.90;99.90
11089;DHT22;5598;48.648;8.908;2024-02-23T01:59:34;4.90;99.90
11089;DHT22;5598;48.648;8.908;2024-02-23T02:02:02;4.80;99.90
11089;DHT22;5598;48.648;8.908;2024-02-23T02:04:29;4.80;99.90
11089;DHT22;5598;48.648;8.908;2024-02-23T02:06:56;4.90;99.90
11089;DHT22;5598;48.648;8.908;2024-02-23T02:09:23;4.90;99.90
11089;DHT22;5598;48.648;8.908;2024-02-23T02:11:52;4.90;99.90
11089;DHT22;5598;48.648;8.908;2024-02-23T02:14:19;4.90;99.90
11089;DHT22;5598;48.648;8.908;2024-02-23T02:16:46;4.90;99.90
11089;DHT22;5598;48.648;8.908;2024-02-23T02:19:13;4.80;99.90
11089;DHT22;5598;48.648;8.908;2024-02-23T02:21:41;4.80;99.90
11089;DHT22;5598;48.648;8.908;2024-02-23T02:24:08;4.80;99.90
11089;DHT22;5598;48.648;8.908;2024-02-23T02:26:35;4.80;99.90
11089;DHT22;5598;48.648;8.908;2024-02-23T02:29:04;4.80;99.90
11089;DHT22;5598;48.648;8.908;2024-02-23T02:31:30;4.80;99.90
11089;DHT22;5598;48.648;8.908;2024-02-23T02:34:03;4.80;99.90
11089;DHT22;5598;48.648;8.908;2024-02-23T02:36:29;4.80;99.90
11089;DHT22;5598;48.648;8.908;2024-02-23T02:38:56;4.80;99.90
11089;DHT22;5598;48.648;8.908;2024-02-23T02:41:24;4.80;99.90
11089;DHT22;5598;48.648;8.908;2024-02-23T02:43:54;4.70;99.90
11089;DHT22;5598;48.648;8.908;2024-02-23T02:46:22;4.70;99.90
11089;DHT22;5598;48.648;8.908;2024-02-23T02:48:49;4.70;99.90
11089;DHT22;5598;48.648;8.908;2024-02-23T02:51:15;4.60;99.90
11089;DHT22;5598;48.648;8.908;2024-02-23T02:53:42;4.60;99.90
11089;DHT22;5598;48.648;8.908;2024-02-23T02:56:09;4.60;99.90
11089;DHT22;5598;48.648;8.908;2024-02-23T02:58:36;4.60;99.90
11089;DHT22;5598;48.648;8.908;2024-02-23T03:01:03;4.50;99.90
11089;DHT22;5598;48.648;8.908;2024-02-23T03:03:31;4.60;99.90
11089;DHT22;5598;48.648;8.908;2024-02-23T03:05:58;4.60;99.90
11089;DHT22;5598;48.648;8.908;2024-02-23T03:08:25;4.50;99.90
11089;DHT22;5598;48.648;8.908;2024-02-23T03:10:52;4.50;99.90
11089;DHT22;5598;48.648;8.908;2024-02-23T03:13:19;4.40;99.90
11089;DHT22;5598;48.648;8.908;2024-02-23T03:15:45;4.40;99.90
11089;DHT22;5598;48.648;8.908;2024-02-23T03:18:12;4.40;99.90
11089;DHT22;5598;48.648;8.908;2024-02-23T03:20:41;4.40;99.90
11089;DHT22;5598;48.648;8.908;2024-02-23T03:23:08;4.40;99.90
11089;DHT22;5598;48.648;8.908;2024-02-23T03:25:35;4.40;99.90
11089;DHT22;5598;48.648;8.908;2024-02-23T03:28:02;4.40;99.90
11089;DHT22;5598;48.648;8.908;2024-02-23T03:30:29;4.40;99.90
11089;DHT22;5598;48.648;8.908;2024-02-23T03:32:56;4.40;99.90
11089;DHT22;5598;48.648;8.908;2024-02-23T03:35:23;4.30;99.90
11089;DHT22;5598;48.648;8.908;2024-02-23T03:37:51;4.30;99.90
11089;DHT22;5598;48.648;8.908;2024-02-23T03:40:18;4.30;99.90
11089;DHT22;5598;48.648;8.908;2024-02-23T03:42:45;4.20;99.90
11089;DHT22;5598;48.648;8.908;2024-02-23T03:45:11;4.30;99.90
11089;DHT22;5598;48.648;8.908;2024-02-23T03:47:38;4.30;99.90
11089;DHT22;5598;48.648;8.908;2024-02-23T03:50:06;4.20;99.90
11089;DHT22;5598;48.648;8.908;2024-02-23T03:52:33;4.30;99.90
11089;DHT22;5598;48.648;8.908;2024-02-23T03:55:02;4.30;99.90
11089;DHT22;5598;48.648;8.908;2024-02-23T03:57:29;4.20;99.90
11089;DHT22;5598;48.648;8.908;2024-02-23T03:59:56;4.20;99.90
11089;DHT22;5598;48.648;8.908;2024-02-23T04:02:23;4.20;99.90
11089;DHT22;5598;48.648;8.908;2024-02-23T04:04:50;4.20;99.90
11089;DHT22;5598;48.648;8.908;2024-02-23T04:07:17;4.20;99.90
11089;DHT22;5598;48.648;8.908;2024-02-23T04:09:44;4.20;99.90
11089;DHT22;5598;48.648;8.908;2024-02-23T04:12:12;4.20;99.90
11089;DHT22;5598;48.648;8.908;2024-02-23T04:14:39;4.20;99.90
11089;DHT22;5598;48.648;8.908;2024-02-23T04:17:06;4.20;99.90
11089;DHT22;5598;48.648;8.908;2024-02-23T04:19:33;4.20;99.90
11089;DHT22;5598;48.648;8.908;2024-02-23T04:21:59;4.10;99.90
11089;DHT22;5598;48.648;8.908;2024-02-23T04:24:26;4.10;99.90
11089;DHT22;5598;48.648;8.908;2024-02-23T04:26:53;4.10;99.90
11089;DHT22;5598;48.648;8.908;2024-02-23T04:29:21;4.10;99.90
11089;DHT22;5598;48.648;8.908;2024-02-23T04:31:48;4.10;99.90
11089;DHT22;5598;48.648;8.908;2024-02-23T04:34:15;4.10;99.90
11089;DHT22;5598;48.648;8.908;2024-02-23T04:36:42;4.00;99.90
11089;DHT22;5598;48.648;8.908;2024-02-23T04:39:09;4.00;99.90
11089;DHT22;5598;48.648;8.908;2024-02-23T04:41:36;4.00;99.90
11089;DHT22;5598;48.648;8.908;2024-02-23T04:44:03;4.00;99.90
11089;DHT22;5598;48.648;8.908;2024-02-23T04:46:36;3.90;99.90
11089;DHT22;5598;48.648;8.908;2024-02-23T04:49:03;3.90;99.90
11089;DHT22;5598;48.648;8.908;2024-02-23T04:51:30;3.90;99.90
11089;DHT22;5598;48.648;8.908;2024-02-23T04:53:57;3.90;99.90
11089;DHT22;5598;48.648;8.908;2024-02-23T04:56:24;3.80;99.90
11089;DHT22;5598;48.648;8.908;2024-02-23T04:58:51;3.80;99.90
11089;DHT22;5598;48.648;8.908;2024-02-23T05:01:18;3.80;99.90
11089;DHT22;5598;48.648;8.908;2024-02-23T05:03:46;3.80;99.90
11089;DHT22;5598;48.648;8.908;2024-02-23T05:06:13;3.80;99.90
11089;DHT22;5598;48.648;8.908;2024-02-23T05:08:40;3.70;99.90
11089;DHT22;5598;48.648;8.908;2024-02-23T05:11:07;3.70;99.90
11089;DHT22;5598;48.648;8.908;2024-02-23T05:13:34;3.60;99.90
11089;DHT22;5598;48.648;8.908;2024-02-23T05:16:00;3.60;99.90
11089;DHT22;5598;48.648;8.908;2024-02-23T05:18:27;3.60;99.90
11089;DHT22;5598;48.648;8.908;2024-02-23T05:20:55;3.60;99.90
11089;DHT22;5598;48.648;8.908;2024-02-23T05:23:22;3.60;99.90
11089;DHT22;5598;48.648;8.908;2024-02-23T05:25:49;3.60;99.90
11089;DHT22;5598;48.648;8.908;2024-02-23T05:28:16;3.60;99.90
11089;DHT22;5598;48.648;8.908;2024-02-23T05:30:43;3.60;99.90
11089;DHT22;5598;48.648;8.908;2024-02-23T05:33:09;3.60;99.90
11089;DHT22;5598;48.648;8.908;2024-02-23T05:35:37;3.70;99.90
11089;DHT22;5598;48.648;8.908;2024-02-23T05:38:05;3.60;99.90
11089;DHT22;5598;48.648;8.908;2024-02-23T05:40:32;3.60;99.90
11089;DHT22;5598;48.648;8.908;2024-02-23T05:42:59;3.70;99.90
11089;DHT22;5598;48.648;8.908;2024-02-23T05:45:26;3.70;99.90
11089;DHT22;5598;48.648;8.908;2024-02-23T05:47:52;3.70;99.90
11089;DHT22;5598;48.648;8.908;2024-02-23T05:50:19;3.60;99.90
11089;DHT22;5598;48.648;8.908;2024-02-23T05:52:46;3.60;99.90
11089;DHT22;5598;48.648;8.908;2024-02-23T05:55:15;3.60;99.90
11089;DHT22;5598;48.648;8.908;2024-02-23T05:57:42;3.70;99.90
11089;DHT22;5598;48.648;8.908;2024-02-23T06:00:10;3.70;99.90
11089;DHT22;5598;48.648;8.908;2024-02-23T06:02:37;3.70;99.90
11089;DHT22;5598;48.648;8.908;2024-02-23T06:05:05;3.80;99.90
11089;DHT22;5598;48.648;8.908;2024-02-23T06:07:33;3.70;99.90
11089;DHT22;5598;48.648;8.908;2024-02-23T06:10:00;3.70;99.90
11089;DHT22;5598;48.648;8.908;2024-02-23T06:12:29;3.70;99.90
11089;DHT22;5598;48.648;8.908;2024-02-23T06:14:56;3.70;99.90
11089;DHT22;5598;48.648;8.908;2024-02-23T06:17:23;3.70;99.90
11089;DHT22;5598;48.648;8.908;2024-02-23T06:19:50;3.70;99.90
11089;DHT22;5598;48.648;8.908;2024-02-23T06:22:18;3.70;99.90
11089;DHT22;5598;48.648;8.908;2024-02-23T06:24:46;3.70;99.90
11089;DHT22;5598;48.648;8.908;2024-02-23T06:27:13;3.80;99.90
11089;DHT22;5598;48.648;8.908;2024-02-23T06:29:41;3.80;99.90
11089;DHT22;5598;48.648;8.908;2024-02-23T06:32:08;3.80;99.90
11089;DHT22;5598;48.648;8.908;2024-02-23T06:34:35;3.80;99.90
11089;DHT22;5598;48.648;8.908;2024-02-23T06:37:02;3.80;99.90
11089;DHT22;5598;48.648;8.908;2024-02-23T06:39:29;3.90;99.90
11089;DHT22;5598;48.648;8.908;2024-02-23T06:41:56;3.80;99.90
11089;DHT22;5598;48.648;8.908;2024-02-23T06:44:26;3.80;99.90
11089;DHT22;5598;48.648;8.908;2024-02-23T06:46:54;3.80;99.90
11089;DHT22;5598;48.648;8.908;2024-02-23T06:49:21;3.80;99.90
11089;DHT22;5598;48.648;8.908;2024-02-23T06:51:50;3.80;99.90
11089;DHT22;5598;48.648;8.908;2024-02-23T06:54:17;3.80;99.90
11089;DHT22;5598;48.648;8.908;2024-02-23T06:56:44;3.80;99.90
11089;DHT22;5598;48.648;8.908;2024-02-23T06:59:11;3.80;99.90
11089;DHT22;5598;48.648;8.908;2024-02-23T07:01:47;3.80;99.90
11089;DHT22;5598;48.648;8.908;2024-02-23T07:04:16;3.80;99.90
11089;DHT22;5598;48.648;8.908;2024-02-23T07:06:43;3.80;99.90
11089;DHT22;5598;48.648;8.908;2024-02-23T07:09:10;3.80;99.90
11089;DHT22;5598;48.648;8.908;2024-02-23T07:11:37;3.80;99.90
11089;DHT22;5598;48.648;8.908;2024-02-23T07:14:05;3.80;99.90
11089;DHT22;5598;48.648;8.908;2024-02-23T07:16:37;3.80;99.90
11089;DHT22;5598;48.648;8.908;2024-02-23T07:19:10;3.80;99.90
11089;DHT22;5598;48.648;8.908;2024-02-23T07:21:39;3.80;99.90
11089;DHT22;5598;48.648;8.908;2024-02-23T07:24:07;3.80;99.90
11089;DHT22;5598;48.648;8.908;2024-02-23T07:26:37;3.80;99.90
11089;DHT22;5598;48.648;8.908;2024-02-23T07:29:05;3.80;99.90
11089;DHT22;5598;48.648;8.908;2024-02-23T07:31:35;3.80;99.90
11089;DHT22;5598;48.648;8.908;2024-02-23T07:34:02;3.80;99.90
11089;DHT22;5598;48.648;8.908;2024-02-23T07:36:29;3.90;99.90
11089;DHT22;5598;48.648;8.908;2024-02-23T07:39:00;3.90;99.90
11089;DHT22;5598;48.648;8.908;2024-02-23T07:41:26;4.00;99.90
11089;DHT22;5598;48.648;8.908;2024-02-23T07:43:53;4.10;99.90
11089;DHT22;5598;48.648;8.908;2024-02-23T07:46:26;4.10;99.90
11089;DHT22;5598;48.648;8.908;2024-02-23T07:48:53;4.10;99.90
11089;DHT22;5598;48.648;8.908;2024-02-23T07:51:26;4.20;99.90
11089;DHT22;5598;48.648;8.908;2024-02-23T07:53:52;4.20;99.90
11089;DHT22;5598;48.648;8.908;2024-02-23T07:56:28;4.20;99.90
11089;DHT22;5598;48.648;8.908;2024-02-23T07:58:55;4.10;99.90
11089;DHT22;5598;48.648;8.908;2024-02-23T08:01:28;4.10;99.90
11089;DHT22;5598;48.648;8.908;2024-02-23T08:03:58;4.10;99.90
11089;DHT22;5598;48.648;8.908;2024-02-23T08:06:31;4.10;99.90
11089;DHT22;5598;48.648;8.908;2024-02-23T08:08:58;4.00;99.90
11089;DHT22;5598;48.648;8.908;2024-02-23T08:11:36;4.00;99.90
11089;DHT22;5598;48.648;8.908;2024-02-23T08:14:03;4.10;99.90
11089;DHT22;5598;48.648;8.908;2024-02-23T08:16:35;4.10;99.90
11089;DHT22;5598;48.648;8.908;2024-02-23T08:19:02;4.20;99.90
11089;DHT22;5598;48.648;8.908;2024-02-23T08:21:29;4.20;99.90
11089;DHT22;5598;48.648;8.908;2024-02-23T08:24:02;4.30;99.90
11089;DHT22;5598;48.648;8.908;2024-02-23T08:26:30;4.30;99.90
11089;DHT22;5598;48.648;8.908;2024-02-23T08:29:03;4.40;99.90
11089;DHT22;5598;48.648;8.908;2024-02-23T08:31:30;4.30;99.90
11089;DHT22;5598;48.648;8.908;2024-02-23T08:34:03;4.30;99.90
11089;DHT22;5598;48.648;8.908;2024-02-23T08:36:30;4.30;99.90
11089;DHT22;5598;48.648;8.908;2024-02-23T08:38:56;4.20;99.90
11089;DHT22;5598;48.648;8.908;2024-02-23T08:41:31;4.20;99.90
11089;DHT22;5598;48.648;8.908;2024-02-23T08:43:57;4.10;99.90
11089;DHT22;5598;48.648;8.908;2024-02-23T08:46:30;4.20;99.90
11089;DHT22;5598;48.648;8.908;2024-02-23T08:48:57;4.20;99.90
11089;DHT22;5598;48.648;8.908;2024-02-23T08:51:29;4.30;99.90
11089;DHT22;5598;48.648;8.908;2024-02-23T08:53:56;4.30;99.90
11089;DHT22;5598;48.648;8.908;2024-02-23T08:56:28;4.30;99.90
11089;DHT22;5598;48.648;8.908;2024-02-23T08:58:56;4.30;99.90
11089;DHT22;5598;48.648;8.908;2024-02-23T09:01:23;4.40;99.90
11089;DHT22;5598;48.648;8.908;2024-02-23T09:03:52;4.50;99.90
11089;DHT22;5598;48.648;8.908;2024-02-23T09:06:19;4.60;99.90
11089;DHT22;5598;48.648;8.908;2024-02-23T09:08:46;4.80;99.90
11089;DHT22;5598;48.648;8.908;2024-02-23T09:11:19;5.00;99.90
11089;DHT22;5598;48.648;8.908;2024-02-23T09:13:45;5.20;99.90
11089;DHT22;5598;48.648;8.908;2024-02-23T09:16:16;5.60;99.90
11089;DHT22;5598;48.648;8.908;2024-02-23T09:18:44;5.70;99.90
11089;DHT22;5598;48.648;8.908;2024-02-23T09:21:11;5.70;99.90
11089;DHT22;5598;48.648;8.908;2024-02-23T09:23:43;5.70;99.90
11089;DHT22;5598;48.648;8.908;2024-02-23T09:26:11;5.70;99.90
11089;DHT22;5598;48.648;8.908;2024-02-23T09:28:43;5.90;99.90
11089;DHT22;5598;48.648;8.908;2024-02-23T09:31:10;6.10;99.90
11089;DHT22;5598;48.648;8.908;2024-02-23T09:33:38;6.20;99.90
11089;DHT22;5598;48.648;8.908;2024-02-23T09:36:11;6.20;99.90
11089;DHT22;5598;48.648;8.908;2024-02-23T09:38:38;6.20;99.90
11089;DHT22;5598;48.648;8.908;2024-02-23T09:41:11;6.10;99.90
11089;DHT22;5598;48.648;8.908;2024-02-23T09:43:42;5.90;99.90
11089;DHT22;5598;48.648;8.908;2024-02-23T09:46:17;5.80;99.90
11089;DHT22;5598;48.648;8.908;2024-02-23T09:48:53;5.60;99.90
11089;DHT22;5598;48.648;8.908;2024-02-23T09:51:23;5.50;99.90
11089;DHT22;5598;48.648;8.908;2024-02-23T09:53:52;5.50;99.90
11089;DHT22;5598;48.648;8.908;2024-02-23T09:56:20;5.50;99.90
11089;DHT22;5598;48.648;8.908;2024-02-23T09:58:49;5.40;99.90
11089;DHT22;5598;48.648;8.908;2024-02-23T10:01:27;5.40;99.90
11089;DHT22;5598;48.648;8.908;2024-02-23T10:03:59;5.50;99.90
11089;DHT22;5598;48.648;8.908;2024-02-23T10:06:27;5.50;99.90
11089;DHT22;5598;48.648;8.908;2024-02-23T10:08:54;5.70;99.90
11089;DHT22;5598;48.648;8.908;2024-02-23T10:11:21;5.90;99.90
11089;DHT22;5598;48.648;8.908;2024-02-23T10:13:48;6.20;99.90
11089;DHT22;5598;48.648;8.908;2024-02-23T10:16:16;6.40;99.90
11089;DHT22;5598;48.648;8.908;2024-02-23T10:18:43;6.50;99.90
11089;DHT22;5598;48.648;8.908;2024-02-23T10:21:11;6.50;99.90
11089;DHT22;5598;48.648;8.908;2024-02-23T10:23:38;6.60;99.90
11089;DHT22;5598;48.648;8.908;2024-02-23T10:26:10;6.50;99.90
11089;DHT22;5598;48.648;8.908;2024-02-23T10:28:37;6.50;99.90
11089;DHT22;5598;48.648;8.908;2024-02-23T10:31:10;6.50;99.90
11089;DHT22;5598;48.648;8.908;2024-02-23T10:33:38;6.50;99.90
11089;DHT22;5598;48.648;8.908;2024-02-23T10:36:09;6.60;99.90
11089;DHT22;5598;48.648;8.908;2024-02-23T10:38:40;6.50;99.90
11089;DHT22;5598;48.648;8.908;2024-02-23T10:41:13;6.60;99.90
11089;DHT22;5598;48.648;8.908;2024-02-23T10:43:44;6.60;99.90
11089;DHT22;5598;48.648;8.908;2024-02-23T10:46:18;6.70;99.90
11089;DHT22;5598;48.648;8.908;2024-02-23T10:48:48;6.80;99.90
11089;DHT22;5598;48.648;8.908;2024-02-23T10:51:21;6.70;99.90
11089;DHT22;5598;48.648;8.908;2024-02-23T10:53:50;6.70;99.90
11089;DHT22;5598;48.648;8.908;2024-02-23T10:56:24;6.60;99.90
11089;DHT22;5598;48.648;8.908;2024-02-23T10:58:51;6.60;99.90
11089;DHT22;5598;48.648;8.908;2024-02-23T11:01:21;6.60;99.90
11089;DHT22;5598;48.648;8.908;2024-02-23T11:03:49;6.60;99.90
11089;DHT22;5598;48.648;8.908;2024-02-23T11:06:23;6.60;99.90
11089;DHT22;5598;48.648;8.908;2024-02-23T11:09:06;6.70;99.90
11089;DHT22;5598;48.648;8.908;2024-02-23T11:11:34;6.70;99.90
11089;DHT22;5598;48.648;8.908;2024-02-23T11:14:09;6.70;99.90
11089;DHT22;5598;48.648;8.908;2024-02-23T11:16:39;6.70;99.90
11089;DHT22;5598;48.648;8.908;2024-02-23T11:19:12;6.70;99.90
11089;DHT22;5598;48.648;8.908;2024-02-23T11:21:41;6.70;99.90
11089;DHT22;5598;48.648;8.908;2024-02-23T11:24:15;6.70;99.90
11089;DHT22;5598;48.648;8.908;2024-02-23T11:26:42;6.70;99.90
11089;DHT22;5598;48.648;8.908;2024-02-23T11:29:12;6.70;99.90
11089;DHT22;5598;48.648;8.908;2024-02-23T11:31:45;6.80;99.90
11089;DHT22;5598;48.648;8.908;2024-02-23T11:34:22;6.70;99.90
11089;DHT22;5598;48.648;8.908;2024-02-23T11:36:56;6.70;99.90
11089;DHT22;5598;48.648;8.908;2024-02-23T11:39:26;6.70;99.90
11089;DHT22;5598;48.648;8.908;2024-02-23T11:41:59;6.70;99.90
11089;DHT22;5598;48.648;8.908;2024-02-23T11:44:25;6.70;99.90
11089;DHT22;5598;48.648;8.908;2024-02-23T11:46:52;6.70;99.90
11089;DHT22;5598;48.648;8.908;2024-02-23T11:49:27;6.70;99.90
11089;DHT22;5598;48.648;8.908;2024-02-23T11:52:04;6.70;99.90
11089;DHT22;5598;48.648;8.908;2024-02-23T11:54:33;6.70;99.90
11089;DHT22;5598;48.648;8.908;2024-02-23T11:57:03;6.70;99.90
11089;DHT22;5598;48.648;8.908;2024-02-23T11:59:30;6.70;99.90
11089;DHT22;5598;48.648;8.908;2024-02-23T12:01:58;6.80;99.90
11089;DHT22;5598;48.648;8.908;2024-02-23T12:04:31;6.90;99.90
11089;DHT22;5598;48.648;8.908;2024-02-23T12:06:57;7.00;99.90
11089;DHT22;5598;48.648;8.908;2024-02-23T12:09:28;7.00;99.90
11089;DHT22;5598;48.648;8.908;2024-02-23T12:11:57;7.00;99.90
11089;DHT22;5598;48.648;8.908;2024-02-23T12:14:30;7.10;99.90
11089;DHT22;5598;48.648;8.908;2024-02-23T12:16:57;7.20;99.90
11089;DHT22;5598;48.648;8.908;2024-02-23T12:19:24;7.20;99.90
11089;DHT22;5598;48.648;8.908;2024-02-23T12:21:52;7.20;99.90
11089;DHT22;5598;48.648;8.908;2024-02-23T12:24:20;7.10;99.90
11089;DHT22;5598;48.648;8.908;2024-02-23T12:26:56;7.10;99.90
11089;DHT22;5598;48.648;8.908;2024-02-23T12:29:23;7.10;99.90
11089;DHT22;5598;48.648;8.908;2024-02-23T12:31:50;7.10;99.90
11089;DHT22;5598;48.648;8.908;2024-02-23T12:34:18;7.10;99.90
11089;DHT22;5598;48.648;8.908;2024-02-23T12:36:46;7.10;99.90
11089;DHT22;5598;48.648;8.908;2024-02-23T12:39:13;7.00;99.90
11089;DHT22;5598;48.648;8.908;2024-02-23T12:41:47;7.00;99.90
11089;DHT22;5598;48.648;8.908;2024-02-23T12:44:15;7.00;99.90
11089;DHT22;5598;48.648;8.908;2024-02-23T12:46:52;7.00;99.90
11089;DHT22;5598;48.648;8.908;2024-02-23T12:49:25;7.00;99.90
11089;DHT22;5598;48.648;8.908;2024-02-23T12:51:51;7.00;99.90
11089;DHT22;5598;48.648;8.908;2024-02-23T12:54:18;7.00;99.90
11089;DHT22;5598;48.648;8.908;2024-02-23T12:56:47;7.00;99.90
11089;DHT22;5598;48.648;8.908;2024-02-23T12:59:16;7.00;99.90
11089;DHT22;5598;48.648;8.908;2024-02-23T13:01:43;7.00;99.90
11089;DHT22;5598;48.648;8.908;2024-02-23T13:04:14;7.00;99.90
11089;DHT22;5598;48.648;8.908;2024-02-23T13:06:41;7.00;99.90
11089;DHT22;5598;48.648;8.908;2024-02-23T13:09:14;6.90;99.90
11089;DHT22;5598;48.648;8.908;2024-02-23T13:11:41;6.90;99.90
11089;DHT22;5598;48.648;8.908;2024-02-23T13:14:14;6.90;99.90
11089;DHT22;5598;48.648;8.908;2024-02-23T13:16:42;6.80;99.90
11089;DHT22;5598;48.648;8.908;2024-02-23T13:19:09;6.80;99.90
11089;DHT22;5598;48.648;8.908;2024-02-23T13:21:46;6.90;99.90
11089;DHT22;5598;48.648;8.908;2024-02-23T13:24:13;6.90;99.90
11089;DHT22;5598;48.648;8.908;2024-02-23T13:26:46;6.90;99.90
11089;DHT22;5598;48.648;8.908;2024-02-23T13:29:12;6.90;99.90
11089;DHT22;5598;48.648;8.908;2024-02-23T13:31:39;6.90;99.90
11089;DHT22;5598;48.648;8.908;2024-02-23T13:34:07;6.90;99.90
11089;DHT22;5598;48.648;8.908;2024-02-23T13:36:35;6.90;99.90
11089;DHT22;5598;48.648;8.908;2024-02-23T13:39:03;6.90;99.90
11089;DHT22;5598;48.648;8.908;2024-02-23T13:41:30;6.90;99.90
11089;DHT22;5598;48.648;8.908;2024-02-23T13:43:57;6.90;99.90
11089;DHT22;5598;48.648;8.908;2024-02-23T13:46:24;6.90;99.90
11089;DHT22;5598;48.648;8.908;2024-02-23T13:49:02;6.90;99.90
11089;DHT22;5598;48.648;8.908;2024-02-23T13:51:35;7.00;99.90
11089;DHT22;5598;48.648;8.908;2024-02-23T13:54:03;6.90;99.90
11089;DHT22;5598;48.648;8.908;2024-02-23T13:56:31;7.00;99.90
11089;DHT22;5598;48.648;8.908;2024-02-23T13:58:58;7.00;99.90
11089;DHT22;5598;48.648;8.908;2024-02-23T14:01:25;7.10;99.90
11089;DHT22;5598;48.648;8.908;2024-02-23T14:03:52;7.20;99.90
11089;DHT22;5598;48.648;8.908;2024-02-23T14:06:18;7.30;99.90
11089;DHT22;5598;48.648;8.908;2024-02-23T14:08:47;7.40;99.90
11089;DHT22;5598;48.648;8.908;2024-02-23T14:11:19;7.40;99.90
11089;DHT22;5598;48.648;8.908;2024-02-23T14:13:46;7.50;99.90
11089;DHT22;5598;48.648;8.908;2024-02-23T14:16:19;7.50;99.90
11089;DHT22;5598;48.648;8.908;2024-02-23T14:18:46;7.50;99.90
11089;DHT22;5598;48.648;8.908;2024-02-23T14:21:13;7.40;99.90
11089;DHT22;5598;48.648;8.908;2024-02-23T14:23:42;7.40;99.90
11089;DHT22;5598;48.648;8.908;2024-02-23T14:26:11;7.30;99.90
11089;DHT22;5598;48.648;8.908;2024-02-23T14:28:38;7.40;99.90
11089;DHT22;5598;48.648;8.908;2024-02-23T14:31:06;7.30;99.90
11089;DHT22;5598;48.648;8.908;2024-02-23T14:33:33;7.30;99.90
11089;DHT22;5598;48.648;8.908;2024-02-23T14:36:00;7.30;99.90
11089;DHT22;5598;48.648;8.908;2024-02-23T14:38:28;7.20;99.90
11089;DHT22;5598;48.648;8.908;2024-02-23T14:40:55;7.20;99.90
11089;DHT22;5598;48.648;8.908;2024-02-23T14:43:23;7.20;99.90
11089;DHT22;5598;48.648;8.908;2024-02-23T14:45:56;7.20;99.90
11089;DHT22;5598;48.648;8.908;2024-02-23T14:48:23;7.20;99.90
11089;DHT22;5598;48.648;8.908;2024-02-23T14:50:56;7.20;99.90
11089;DHT22;5598;48.648;8.908;2024-02-23T14:53:24;7.20;99.90
11089;DHT22;5598;48.648;8.908;2024-02-23T14:55:51;7.20;99.90
11089;DHT22;5598;48.648;8.908;2024-02-23T14:58:20;7.10;99.90
11089;DHT22;5598;48.648;8.908;2024-02-23T15:00:48;7.10;99.90
11089;DHT22;5598;48.648;8.908;2024-02-23T15:03:19;7.10;99.90
11089;DHT22;5598;48.648;8.908;2024-02-23T15:05:45;7.10;99.90
11089;DHT22;5598;48.648;8.908;2024-02-23T15:08:12;7.20;99.90
11089;DHT22;5598;48.648;8.908;2024-02-23T15:10:41;7.20;99.90
11089;DHT22;5598;48.648;8.908;2024-02-23T15:13:08;7.20;99.90
11089;DHT22;5598;48.648;8.908;2024-02-23T15:15:35;7.20;99.90
11089;DHT22;5598;48.648;8.908;2024-02-23T15:18:07;7.10;99.90
11089;DHT22;5598;48.648;8.908;2024-02-23T15:20:34;7.10;99.90
11089;DHT22;5598;48.648;8.908;2024-02-23T15:23:03;7.10;99.90
11089;DHT22;5598;48.648;8.908;2024-02-23T15:25:32;7.00;99.90
11089;DHT22;5598;48.648;8.908;2024-02-23T15:28:00;6.90;99.90
11089;DHT22;5598;48.648;8.908;2024-02-23T15:30:28;6.80;99.90
11089;DHT22;5598;48.648;8.908;2024-02-23T15:32:55;6.70;99.90
11089;DHT22;5598;48.648;8.908;2024-02-23T15:35:23;6.70;99.90
11089;DHT22;5598;48.648;8.908;2024-02-23T15:38:01;6.60;99.90
11089;DHT22;5598;48.648;8.908;2024-02-23T15:40:28;6.60;99.90
11089;DHT22;5598;48.648;8.908;2024-02-23T15:43:00;6.60;99.90
11089;DHT22;5598;48.648;8.908;2024-02-23T15:45:27;6.50;99.90
11089;DHT22;5598;48.648;8.908;2024-02-23T15:48:00;6.50;99.90
11089;DHT22;5598;48.648;8.908;2024-02-23T15:50:28;6.40;99.90
11089;DHT22;5598;48.648;8.908;2024-02-23T15:52:58;6.40;99.90
11089;DHT22;5598;48.648;8.908;2024-02-23T15:55:25;6.40;99.90
11089;DHT22;5598;48.648;8.908;2024-02-23T15:57:51;6.40;99.90
11089;DHT22;5598;48.648;8.908;2024-02-23T16:00:21;6.40;99.90
11089;DHT22;5598;48.648;8.908;2024-02-23T16:02:48;6.50;99.90
11089;DHT22;5598;48.648;8.908;2024-02-23T16:05:14;6.50;99.90
11089;DHT22;5598;48.648;8.908;2024-02-23T16:07:45;6.50;99.90
11089;DHT22;5598;48.648;8.908;2024-02-23T16:10:14;6.50;99.90